LPPS Airport Information

Runway Information
Runway 01 Length 0 ft width 0 ft
Elevation 240 ft Threshold 0 ft Heading 0
Runway 19 Length 0 ft Width 0 ft
Elevation 341 ft Threshold 0 ft Heading 0
Runway 18 Length 9861 ft width 148 ft
Elevation 240 ft Threshold 0 ft Heading 178
Runway 36 Length 9861 ft Width 148 ft
Elevation 338 ft Threshold 0 ft Heading 358
Airport Frequencies
Type GCA Name GCA Frequency 123.3 MHZ
Type TWR Name TWR Frequency 118.4 MHZ
Airport Navaids
Type NDB Name Porto Santo Frequency 338 KHZ
Type VOR-DME Name Porto Santo Frequency 114900 KHZ
Type TACAN Name Porto Santo Frequency 116300 KHZ
Airport Weather Information & NOTAM
ADDS - METARS form results

(1532 UTC 21 April 2018)
 
METAR text: LPPS 211500Z 34019KT 9999 SCT014 FEW017TCU SCT030 18/14 Q1011
Conditions at: LPPS (PORTO SANTO ISLA, PT) observed 1500 UTC 21 April 2018
Temperature: 18.0°C (64°F)
Dewpoint: 14.0°C (57°F) [RH = 77%]
Pressure (altimeter): 29.85 inches Hg (1011.0 mb)
Winds: from the NNW (340 degrees) at 22 MPH (19 knots; 9.9 m/s)
Visibility: 6 or more miles (10+ km)
Ceiling: at least 12,000 feet AGL
Clouds: scattered clouds at 1400 feet AGL
few clouds at 1700 feet AGL
scattered clouds at 3000 feet AGL
Weather: no significant weather observed at this time